Riverside, North Dakota
Current Conditions -  °F | °C
As of 10:53 AM on Thursday 30 Oct 2014 (Local Time) from KFAR Reporting Station
Broken Clouds Broken Clouds  
Wind Chill: 31°   Ceiling: 4000
Heat Index: 40°   Visibility: 10mi
Dew Point: 35°   Wind: 18mph
Humidity: 83%   Direction: 360°N
Pressure: 30.22"   Gusts: 25mph
Location:  46.8625°N, 96.9269°W
Report Text: KFAR 301553Z 36016G22KT 10SM FEW018 BKN040 04/02 A3022 RMK AO2 SLP242 T00440017
Loading
Personal Weather Stations






























Interactive Weather Map
Tropical Storm Tracking
New forecast layout! Learn more

10-Day Weather Forecast

Advertisements
Track Severe Weather on mobile